sensor_id;sensor_type;location;lat;lon;timestamp;P1;durP1;ratioP1;P2;durP2;ratioP2
12248;SDS011;6187;50.778;6.142;2022-12-17T00:02:08;26.63;;;21.10;;
12248;SDS011;6187;50.778;6.142;2022-12-17T00:04:54;27.20;;;19.50;;
12248;SDS011;6187;50.778;6.142;2022-12-17T00:07:41;29.17;;;21.70;;
12248;SDS011;6187;50.778;6.142;2022-12-17T00:10:27;28.40;;;20.83;;
12248;SDS011;6187;50.778;6.142;2022-12-17T00:13:17;32.27;;;21.97;;
12248;SDS011;6187;50.778;6.142;2022-12-17T00:16:04;23.87;;;19.27;;
12248;SDS011;6187;50.778;6.142;2022-12-17T00:18:58;26.50;;;18.83;;
12248;SDS011;6187;50.778;6.142;2022-12-17T00:21:44;25.30;;;18.83;;
12248;SDS011;6187;50.778;6.142;2022-12-17T00:24:30;27.53;;;20.57;;
12248;SDS011;6187;50.778;6.142;2022-12-17T00:27:13;26.93;;;20.90;;
12248;SDS011;6187;50.778;6.142;2022-12-17T00:29:59;29.13;;;21.27;;
12248;SDS011;6187;50.778;6.142;2022-12-17T00:32:45;25.53;;;19.93;;
12248;SDS011;6187;50.778;6.142;2022-12-17T00:35:33;27.83;;;20.57;;
12248;SDS011;6187;50.778;6.142;2022-12-17T00:38:21;24.87;;;18.60;;
12248;SDS011;6187;50.778;6.142;2022-12-17T00:41:08;21.80;;;16.93;;
12248;SDS011;6187;50.778;6.142;2022-12-17T00:44:06;24.43;;;18.67;;
12248;SDS011;6187;50.778;6.142;2022-12-17T00:46:52;28.83;;;19.87;;
12248;SDS011;6187;50.778;6.142;2022-12-17T00:49:38;30.43;;;21.03;;
12248;SDS011;6187;50.778;6.142;2022-12-17T00:52:26;25.33;;;19.47;;
12248;SDS011;6187;50.778;6.142;2022-12-17T00:55:12;24.80;;;17.80;;
12248;SDS011;6187;50.778;6.142;2022-12-17T00:57:58;23.80;;;17.67;;
12248;SDS011;6187;50.778;6.142;2022-12-17T01:00:45;28.17;;;21.37;;
12248;SDS011;6187;50.778;6.142;2022-12-17T01:03:31;27.63;;;19.97;;
12248;SDS011;6187;50.778;6.142;2022-12-17T01:06:19;27.43;;;20.43;;
12248;SDS011;6187;50.778;6.142;2022-12-17T01:09:06;30.17;;;21.87;;
12248;SDS011;6187;50.778;6.142;2022-12-17T01:12:04;29.10;;;20.77;;
12248;SDS011;6187;50.778;6.142;2022-12-17T01:14:50;29.40;;;21.17;;
12248;SDS011;6187;50.778;6.142;2022-12-17T01:17:37;29.03;;;20.73;;
12248;SDS011;6187;50.778;6.142;2022-12-17T01:20:23;32.23;;;21.83;;
12248;SDS011;6187;50.778;6.142;2022-12-17T01:23:10;28.87;;;20.53;;
12248;SDS011;6187;50.778;6.142;2022-12-17T01:25:57;29.27;;;20.73;;
12248;SDS011;6187;50.778;6.142;2022-12-17T01:28:44;25.43;;;17.30;;
12248;SDS011;6187;50.778;6.142;2022-12-17T01:31:30;29.97;;;21.20;;
12248;SDS011;6187;50.778;6.142;2022-12-17T01:34:16;28.87;;;20.57;;
12248;SDS011;6187;50.778;6.142;2022-12-17T01:37:03;28.07;;;19.17;;
12248;SDS011;6187;50.778;6.142;2022-12-17T01:39:50;32.07;;;21.30;;
12248;SDS011;6187;50.778;6.142;2022-12-17T01:42:39;30.47;;;21.17;;
12248;SDS011;6187;50.778;6.142;2022-12-17T01:45:25;29.80;;;21.00;;
12248;SDS011;6187;50.778;6.142;2022-12-17T01:48:14;36.97;;;23.83;;
12248;SDS011;6187;50.778;6.142;2022-12-17T01:51:01;28.43;;;20.43;;
12248;SDS011;6187;50.778;6.142;2022-12-17T01:53:49;31.37;;;20.70;;
12248;SDS011;6187;50.778;6.142;2022-12-17T01:56:36;28.93;;;19.87;;
12248;SDS011;6187;50.778;6.142;2022-12-17T01:59:28;28.07;;;18.67;;
12248;SDS011;6187;50.778;6.142;2022-12-17T02:02:16;28.73;;;18.90;;
12248;SDS011;6187;50.778;6.142;2022-12-17T02:05:03;29.17;;;19.70;;
12248;SDS011;6187;50.778;6.142;2022-12-17T02:07:51;28.10;;;18.60;;
12248;SDS011;6187;50.778;6.142;2022-12-17T02:10:43;28.33;;;17.53;;
12248;SDS011;6187;50.778;6.142;2022-12-17T02:13:31;27.03;;;17.20;;
12248;SDS011;6187;50.778;6.142;2022-12-17T02:16:22;29.00;;;18.50;;
12248;SDS011;6187;50.778;6.142;2022-12-17T02:19:13;24.93;;;17.47;;
12248;SDS011;6187;50.778;6.142;2022-12-17T02:21:59;25.37;;;17.10;;
12248;SDS011;6187;50.778;6.142;2022-12-17T02:24:50;27.87;;;18.63;;
12248;SDS011;6187;50.778;6.142;2022-12-17T02:27:39;27.87;;;19.37;;
12248;SDS011;6187;50.778;6.142;2022-12-17T02:30:25;27.03;;;17.83;;
12248;SDS011;6187;50.778;6.142;2022-12-17T02:33:12;27.87;;;18.43;;
12248;SDS011;6187;50.778;6.142;2022-12-17T02:36:01;25.03;;;17.53;;
12248;SDS011;6187;50.778;6.142;2022-12-17T02:38:49;25.93;;;18.37;;
12248;SDS011;6187;50.778;6.142;2022-12-17T02:41:37;24.90;;;16.37;;
12248;SDS011;6187;50.778;6.142;2022-12-17T02:44:25;27.67;;;18.20;;
12248;SDS011;6187;50.778;6.142;2022-12-17T02:47:13;25.90;;;17.47;;
12248;SDS011;6187;50.778;6.142;2022-12-17T02:50:00;24.40;;;16.80;;
12248;SDS011;6187;50.778;6.142;2022-12-17T02:52:47;24.37;;;17.17;;
12248;SDS011;6187;50.778;6.142;2022-12-17T02:55:34;28.43;;;17.90;;
12248;SDS011;6187;50.778;6.142;2022-12-17T02:58:21;26.80;;;17.40;;
12248;SDS011;6187;50.778;6.142;2022-12-17T03:01:05;22.43;;;16.23;;
12248;SDS011;6187;50.778;6.142;2022-12-17T03:03:51;24.63;;;16.90;;
12248;SDS011;6187;50.778;6.142;2022-12-17T03:06:38;27.00;;;17.03;;
12248;SDS011;6187;50.778;6.142;2022-12-17T03:09:24;23.33;;;15.67;;
12248;SDS011;6187;50.778;6.142;2022-12-17T03:12:11;27.03;;;17.03;;
12248;SDS011;6187;50.778;6.142;2022-12-17T03:14:57;24.80;;;17.07;;
12248;SDS011;6187;50.778;6.142;2022-12-17T03:17:45;22.07;;;15.33;;
12248;SDS011;6187;50.778;6.142;2022-12-17T03:20:31;21.10;;;14.83;;
12248;SDS011;6187;50.778;6.142;2022-12-17T03:23:18;22.43;;;15.63;;
12248;SDS011;6187;50.778;6.142;2022-12-17T03:26:05;25.13;;;16.03;;
12248;SDS011;6187;50.778;6.142;2022-12-17T03:28:51;21.77;;;14.20;;
12248;SDS011;6187;50.778;6.142;2022-12-17T03:31:38;22.17;;;15.07;;
12248;SDS011;6187;50.778;6.142;2022-12-17T03:34:25;21.77;;;14.73;;
12248;SDS011;6187;50.778;6.142;2022-12-17T03:37:12;21.17;;;13.70;;
12248;SDS011;6187;50.778;6.142;2022-12-17T03:39:58;22.07;;;15.30;;
12248;SDS011;6187;50.778;6.142;2022-12-17T03:42:45;24.07;;;15.50;;
12248;SDS011;6187;50.778;6.142;2022-12-17T03:45:31;23.20;;;15.37;;
12248;SDS011;6187;50.778;6.142;2022-12-17T03:48:17;22.90;;;15.50;;
12248;SDS011;6187;50.778;6.142;2022-12-17T03:51:05;20.43;;;14.07;;
12248;SDS011;6187;50.778;6.142;2022-12-17T03:53:52;18.27;;;13.10;;
12248;SDS011;6187;50.778;6.142;2022-12-17T03:56:38;23.47;;;15.37;;
12248;SDS011;6187;50.778;6.142;2022-12-17T03:59:24;19.47;;;13.60;;
12248;SDS011;6187;50.778;6.142;2022-12-17T04:02:11;22.67;;;14.30;;
12248;SDS011;6187;50.778;6.142;2022-12-17T04:04:58;17.23;;;12.33;;
12248;SDS011;6187;50.778;6.142;2022-12-17T04:07:47;18.93;;;13.37;;
12248;SDS011;6187;50.778;6.142;2022-12-17T04:10:33;19.77;;;13.40;;
12248;SDS011;6187;50.778;6.142;2022-12-17T04:13:22;16.77;;;11.80;;
12248;SDS011;6187;50.778;6.142;2022-12-17T04:16:09;19.47;;;12.80;;
12248;SDS011;6187;50.778;6.142;2022-12-17T04:18:55;18.73;;;14.10;;
12248;SDS011;6187;50.778;6.142;2022-12-17T04:21:42;19.23;;;12.80;;
12248;SDS011;6187;50.778;6.142;2022-12-17T04:24:30;17.20;;;11.17;;
12248;SDS011;6187;50.778;6.142;2022-12-17T04:27:16;20.23;;;14.13;;
12248;SDS011;6187;50.778;6.142;2022-12-17T04:30:03;15.43;;;11.50;;
12248;SDS011;6187;50.778;6.142;2022-12-17T04:32:49;16.90;;;11.83;;
12248;SDS011;6187;50.778;6.142;2022-12-17T04:35:36;16.77;;;11.77;;
12248;SDS011;6187;50.778;6.142;2022-12-17T04:38:22;17.93;;;11.70;;
12248;SDS011;6187;50.778;6.142;2022-12-17T04:41:10;20.57;;;12.67;;
12248;SDS011;6187;50.778;6.142;2022-12-17T04:43:56;17.47;;;11.60;;
12248;SDS011;6187;50.778;6.142;2022-12-17T04:46:43;18.33;;;12.17;;
12248;SDS011;6187;50.778;6.142;2022-12-17T04:49:29;18.20;;;11.03;;
12248;SDS011;6187;50.778;6.142;2022-12-17T04:52:15;14.97;;;10.40;;
12248;SDS011;6187;50.778;6.142;2022-12-17T04:55:02;13.00;;;9.73;;
12248;SDS011;6187;50.778;6.142;2022-12-17T04:57:50;14.77;;;9.27;;
12248;SDS011;6187;50.778;6.142;2022-12-17T05:00:36;14.33;;;9.50;;
12248;SDS011;6187;50.778;6.142;2022-12-17T05:03:31;11.73;;;8.87;;
12248;SDS011;6187;50.778;6.142;2022-12-17T05:06:17;12.80;;;8.33;;
12248;SDS011;6187;50.778;6.142;2022-12-17T05:09:04;11.83;;;8.60;;
12248;SDS011;6187;50.778;6.142;2022-12-17T05:11:50;13.70;;;9.40;;
12248;SDS011;6187;50.778;6.142;2022-12-17T05:14:38;11.50;;;8.67;;
12248;SDS011;6187;50.778;6.142;2022-12-17T05:17:24;13.10;;;8.47;;
12248;SDS011;6187;50.778;6.142;2022-12-17T05:20:11;13.67;;;9.53;;
12248;SDS011;6187;50.778;6.142;2022-12-17T05:23:02;12.47;;;8.90;;
12248;SDS011;6187;50.778;6.142;2022-12-17T05:25:55;16.03;;;10.83;;
12248;SDS011;6187;50.778;6.142;2022-12-17T05:28:43;15.07;;;9.90;;
12248;SDS011;6187;50.778;6.142;2022-12-17T05:31:30;14.77;;;9.97;;
12248;SDS011;6187;50.778;6.142;2022-12-17T05:34:17;16.80;;;9.93;;
12248;SDS011;6187;50.778;6.142;2022-12-17T05:37:03;19.70;;;11.87;;
12248;SDS011;6187;50.778;6.142;2022-12-17T05:39:50;18.23;;;12.37;;
12248;SDS011;6187;50.778;6.142;2022-12-17T05:42:38;21.13;;;13.13;;
12248;SDS011;6187;50.778;6.142;2022-12-17T05:45:24;19.83;;;12.67;;
12248;SDS011;6187;50.778;6.142;2022-12-17T05:48:12;20.17;;;13.27;;
12248;SDS011;6187;50.778;6.142;2022-12-17T05:50:59;21.30;;;12.27;;
12248;SDS011;6187;50.778;6.142;2022-12-17T05:53:45;20.83;;;12.60;;
12248;SDS011;6187;50.778;6.142;2022-12-17T05:56:32;20.27;;;12.60;;
12248;SDS011;6187;50.778;6.142;2022-12-17T05:59:30;20.70;;;11.53;;
12248;SDS011;6187;50.778;6.142;2022-12-17T06:02:16;21.10;;;12.83;;
12248;SDS011;6187;50.778;6.142;2022-12-17T06:05:04;22.27;;;13.97;;
12248;SDS011;6187;50.778;6.142;2022-12-17T06:07:51;23.30;;;13.77;;
12248;SDS011;6187;50.778;6.142;2022-12-17T06:10:37;24.70;;;13.43;;
12248;SDS011;6187;50.778;6.142;2022-12-17T06:13:24;29.80;;;16.27;;
12248;SDS011;6187;50.778;6.142;2022-12-17T06:16:10;35.87;;;18.20;;
12248;SDS011;6187;50.778;6.142;2022-12-17T06:18:56;29.10;;;16.20;;
12248;SDS011;6187;50.778;6.142;2022-12-17T06:21:44;32.83;;;17.77;;
12248;SDS011;6187;50.778;6.142;2022-12-17T06:24:31;24.97;;;15.03;;
12248;SDS011;6187;50.778;6.142;2022-12-17T06:27:17;23.47;;;14.80;;
12248;SDS011;6187;50.778;6.142;2022-12-17T06:30:04;25.23;;;15.03;;
12248;SDS011;6187;50.778;6.142;2022-12-17T06:32:51;28.30;;;16.93;;
12248;SDS011;6187;50.778;6.142;2022-12-17T06:35:37;29.50;;;17.30;;
12248;SDS011;6187;50.778;6.142;2022-12-17T06:38:25;26.03;;;15.70;;
12248;SDS011;6187;50.778;6.142;2022-12-17T06:41:11;28.87;;;17.27;;
12248;SDS011;6187;50.778;6.142;2022-12-17T06:43:58;26.07;;;13.40;;
12248;SDS011;6187;50.778;6.142;2022-12-17T06:46:44;25.40;;;14.97;;
12248;SDS011;6187;50.778;6.142;2022-12-17T06:49:31;28.77;;;16.53;;
12248;SDS011;6187;50.778;6.142;2022-12-17T06:52:23;28.63;;;16.10;;
12248;SDS011;6187;50.778;6.142;2022-12-17T06:55:11;30.10;;;16.73;;
12248;SDS011;6187;50.778;6.142;2022-12-17T06:57:57;25.97;;;15.80;;
12248;SDS011;6187;50.778;6.142;2022-12-17T07:00:44;30.33;;;17.17;;
12248;SDS011;6187;50.778;6.142;2022-12-17T07:03:31;34.00;;;18.90;;
12248;SDS011;6187;50.778;6.142;2022-12-17T07:06:18;30.57;;;18.60;;
12248;SDS011;6187;50.778;6.142;2022-12-17T07:09:04;32.93;;;19.33;;
12248;SDS011;6187;50.778;6.142;2022-12-17T07:11:51;31.70;;;17.33;;
12248;SDS011;6187;50.778;6.142;2022-12-17T07:14:38;29.53;;;17.30;;
12248;SDS011;6187;50.778;6.142;2022-12-17T07:17:24;29.70;;;17.67;;
12248;SDS011;6187;50.778;6.142;2022-12-17T07:20:11;31.07;;;18.07;;
12248;SDS011;6187;50.778;6.142;2022-12-17T07:22:57;31.47;;;18.30;;
12248;SDS011;6187;50.778;6.142;2022-12-17T07:25:44;26.80;;;15.73;;
12248;SDS011;6187;50.778;6.142;2022-12-17T07:28:31;24.73;;;15.23;;
12248;SDS011;6187;50.778;6.142;2022-12-17T07:31:18;32.63;;;18.30;;
12248;SDS011;6187;50.778;6.142;2022-12-17T07:34:04;28.53;;;16.70;;
12248;SDS011;6187;50.778;6.142;2022-12-17T07:36:50;26.53;;;16.07;;
12248;SDS011;6187;50.778;6.142;2022-12-17T07:39:44;23.80;;;15.30;;
12248;SDS011;6187;50.778;6.142;2022-12-17T07:42:29;30.40;;;17.93;;
12248;SDS011;6187;50.778;6.142;2022-12-17T07:45:26;26.47;;;16.97;;
12248;SDS011;6187;50.778;6.142;2022-12-17T07:48:12;27.37;;;16.33;;
12248;SDS011;6187;50.778;6.142;2022-12-17T07:50:59;23.70;;;15.83;;
12248;SDS011;6187;50.778;6.142;2022-12-17T07:53:45;24.17;;;14.33;;
12248;SDS011;6187;50.778;6.142;2022-12-17T07:56:32;22.93;;;13.80;;
12248;SDS011;6187;50.778;6.142;2022-12-17T07:59:18;21.80;;;14.07;;
12248;SDS011;6187;50.778;6.142;2022-12-17T08:02:20;22.17;;;13.37;;
12248;SDS011;6187;50.778;6.142;2022-12-17T08:05:07;19.63;;;12.23;;
12248;SDS011;6187;50.778;6.142;2022-12-17T08:07:53;18.53;;;12.07;;
12248;SDS011;6187;50.778;6.142;2022-12-17T08:10:40;19.93;;;13.07;;
12248;SDS011;6187;50.778;6.142;2022-12-17T08:13:26;17.53;;;12.03;;
12248;SDS011;6187;50.778;6.142;2022-12-17T08:16:13;18.30;;;11.70;;
12248;SDS011;6187;50.778;6.142;2022-12-17T08:19:01;16.03;;;11.37;;
12248;SDS011;6187;50.778;6.142;2022-12-17T08:21:47;17.43;;;11.10;;
12248;SDS011;6187;50.778;6.142;2022-12-17T08:24:34;15.43;;;11.03;;
12248;SDS011;6187;50.778;6.142;2022-12-17T08:27:22;17.67;;;12.07;;
12248;SDS011;6187;50.778;6.142;2022-12-17T08:30:09;14.50;;;10.40;;
12248;SDS011;6187;50.778;6.142;2022-12-17T08:33:00;16.93;;;11.13;;
12248;SDS011;6187;50.778;6.142;2022-12-17T08:35:51;15.43;;;11.00;;
12248;SDS011;6187;50.778;6.142;2022-12-17T08:38:37;16.00;;;11.40;;
12248;SDS011;6187;50.778;6.142;2022-12-17T08:41:25;17.40;;;11.50;;
12248;SDS011;6187;50.778;6.142;2022-12-17T08:44:19;13.60;;;9.93;;
12248;SDS011;6187;50.778;6.142;2022-12-17T08:47:06;15.67;;;11.27;;
12248;SDS011;6187;50.778;6.142;2022-12-17T08:49:52;15.03;;;10.37;;
12248;SDS011;6187;50.778;6.142;2022-12-17T08:52:40;16.30;;;10.40;;
12248;SDS011;6187;50.778;6.142;2022-12-17T08:55:26;15.83;;;10.47;;
12248;SDS011;6187;50.778;6.142;2022-12-17T08:58:12;12.80;;;8.97;;
12248;SDS011;6187;50.778;6.142;2022-12-17T09:00:59;14.73;;;10.60;;
12248;SDS011;6187;50.778;6.142;2022-12-17T09:03:46;15.47;;;10.70;;
12248;SDS011;6187;50.778;6.142;2022-12-17T09:06:33;13.80;;;10.10;;
12248;SDS011;6187;50.778;6.142;2022-12-17T09:09:20;13.83;;;9.37;;
12248;SDS011;6187;50.778;6.142;2022-12-17T09:12:07;12.47;;;8.60;;
12248;SDS011;6187;50.778;6.142;2022-12-17T09:14:53;13.13;;;9.03;;
12248;SDS011;6187;50.778;6.142;2022-12-17T09:17:40;12.20;;;9.20;;
12248;SDS011;6187;50.778;6.142;2022-12-17T09:20:26;13.27;;;9.07;;
12248;SDS011;6187;50.778;6.142;2022-12-17T09:23:13;13.90;;;8.80;;
12248;SDS011;6187;50.778;6.142;2022-12-17T09:26:10;12.47;;;9.10;;
12248;SDS011;6187;50.778;6.142;2022-12-17T09:28:56;14.43;;;9.43;;
12248;SDS011;6187;50.778;6.142;2022-12-17T09:31:43;14.07;;;9.80;;
12248;SDS011;6187;50.778;6.142;2022-12-17T09:34:29;13.43;;;9.57;;
12248;SDS011;6187;50.778;6.142;2022-12-17T09:37:16;14.10;;;9.03;;
12248;SDS011;6187;50.778;6.142;2022-12-17T09:40:02;11.40;;;8.83;;
12248;SDS011;6187;50.778;6.142;2022-12-17T09:42:50;11.97;;;8.77;;
12248;SDS011;6187;50.778;6.142;2022-12-17T09:45:39;12.87;;;8.77;;
12248;SDS011;6187;50.778;6.142;2022-12-17T09:48:29;13.43;;;9.63;;
12248;SDS011;6187;50.778;6.142;2022-12-17T09:51:20;12.80;;;8.97;;
12248;SDS011;6187;50.778;6.142;2022-12-17T09:54:10;11.23;;;7.80;;
12248;SDS011;6187;50.778;6.142;2022-12-17T09:56:57;14.70;;;9.60;;
12248;SDS011;6187;50.778;6.142;2022-12-17T09:59:45;14.77;;;10.50;;
12248;SDS011;6187;50.778;6.142;2022-12-17T10:02:31;15.20;;;11.33;;
12248;SDS011;6187;50.778;6.142;2022-12-17T10:05:19;13.23;;;9.53;;
12248;SDS011;6187;50.778;6.142;2022-12-17T10:08:06;14.03;;;11.10;;
12248;SDS011;6187;50.778;6.142;2022-12-17T10:10:52;15.87;;;11.23;;
12248;SDS011;6187;50.778;6.142;2022-12-17T10:13:40;17.30;;;12.30;;
12248;SDS011;6187;50.778;6.142;2022-12-17T10:16:28;17.47;;;11.97;;
12248;SDS011;6187;50.778;6.142;2022-12-17T10:19:16;16.20;;;11.77;;
12248;SDS011;6187;50.778;6.142;2022-12-17T10:22:07;15.17;;;11.13;;
12248;SDS011;6187;50.778;6.142;2022-12-17T10:24:53;13.40;;;10.10;;
12248;SDS011;6187;50.778;6.142;2022-12-17T10:27:40;14.47;;;11.27;;
12248;SDS011;6187;50.778;6.142;2022-12-17T10:30:26;14.10;;;9.73;;
12248;SDS011;6187;50.778;6.142;2022-12-17T10:33:15;13.37;;;9.87;;
12248;SDS011;6187;50.778;6.142;2022-12-17T10:36:04;15.83;;;10.23;;
12248;SDS011;6187;50.778;6.142;2022-12-17T10:38:53;14.23;;;9.67;;
12248;SDS011;6187;50.778;6.142;2022-12-17T10:41:39;12.83;;;9.57;;
12248;SDS011;6187;50.778;6.142;2022-12-17T10:44:26;10.23;;;8.73;;
12248;SDS011;6187;50.778;6.142;2022-12-17T10:47:14;11.13;;;8.83;;
12248;SDS011;6187;50.778;6.142;2022-12-17T10:50:02;14.30;;;9.47;;
12248;SDS011;6187;50.778;6.142;2022-12-17T10:52:50;14.13;;;10.20;;
12248;SDS011;6187;50.778;6.142;2022-12-17T10:55:44;14.43;;;10.50;;
12248;SDS011;6187;50.778;6.142;2022-12-17T10:58:31;14.33;;;10.70;;
12248;SDS011;6187;50.778;6.142;2022-12-17T11:01:19;13.67;;;10.27;;
12248;SDS011;6187;50.778;6.142;2022-12-17T11:04:22;12.83;;;10.13;;
12248;SDS011;6187;50.778;6.142;2022-12-17T11:07:06;12.50;;;9.73;;
12248;SDS011;6187;50.778;6.142;2022-12-17T11:09:55;15.47;;;11.00;;
12248;SDS011;6187;50.778;6.142;2022-12-17T11:12:44;15.03;;;10.93;;
12248;SDS011;6187;50.778;6.142;2022-12-17T11:15:35;14.00;;;10.53;;
12248;SDS011;6187;50.778;6.142;2022-12-17T11:18:23;12.37;;;10.20;;
12248;SDS011;6187;50.778;6.142;2022-12-17T11:21:12;15.17;;;11.00;;
12248;SDS011;6187;50.778;6.142;2022-12-17T11:24:01;13.27;;;9.73;;
12248;SDS011;6187;50.778;6.142;2022-12-17T11:26:49;13.87;;;10.00;;
12248;SDS011;6187;50.778;6.142;2022-12-17T11:29:36;14.80;;;10.87;;
12248;SDS011;6187;50.778;6.142;2022-12-17T11:35:28;15.97;;;11.00;;
12248;SDS011;6187;50.778;6.142;2022-12-17T11:38:20;14.80;;;11.47;;
12248;SDS011;6187;50.778;6.142;2022-12-17T11:41:10;12.80;;;10.03;;
12248;SDS011;6187;50.778;6.142;2022-12-17T11:43:59;15.03;;;10.83;;
12248;SDS011;6187;50.778;6.142;2022-12-17T11:46:47;13.57;;;10.50;;
12248;SDS011;6187;50.778;6.142;2022-12-17T11:49:38;14.83;;;11.47;;
12248;SDS011;6187;50.778;6.142;2022-12-17T11:52:26;15.83;;;11.33;;
12248;SDS011;6187;50.778;6.142;2022-12-17T11:55:16;12.87;;;10.17;;
12248;SDS011;6187;50.778;6.142;2022-12-17T11:58:15;14.43;;;11.37;;
12248;SDS011;6187;50.778;6.142;2022-12-17T12:01:06;14.13;;;10.47;;
12248;SDS011;6187;50.778;6.142;2022-12-17T12:03:57;13.97;;;10.60;;
12248;SDS011;6187;50.778;6.142;2022-12-17T12:06:47;13.70;;;10.33;;
12248;SDS011;6187;50.778;6.142;2022-12-17T12:09:38;14.27;;;10.23;;
12248;SDS011;6187;50.778;6.142;2022-12-17T12:12:31;13.00;;;9.77;;
12248;SDS011;6187;50.778;6.142;2022-12-17T12:15:22;14.80;;;10.87;;
12248;SDS011;6187;50.778;6.142;2022-12-17T12:18:12;14.50;;;10.97;;
12248;SDS011;6187;50.778;6.142;2022-12-17T12:21:04;14.53;;;11.40;;
12248;SDS011;6187;50.778;6.142;2022-12-17T12:23:59;14.27;;;10.00;;
12248;SDS011;6187;50.778;6.142;2022-12-17T12:26:50;14.97;;;11.53;;
12248;SDS011;6187;50.778;6.142;2022-12-17T12:29:38;14.47;;;10.90;;
12248;SDS011;6187;50.778;6.142;2022-12-17T12:32:31;13.90;;;10.70;;
12248;SDS011;6187;50.778;6.142;2022-12-17T12:35:20;12.23;;;9.97;;
12248;SDS011;6187;50.778;6.142;2022-12-17T12:38:09;13.53;;;10.43;;
12248;SDS011;6187;50.778;6.142;2022-12-17T12:40:59;14.90;;;11.17;;
12248;SDS011;6187;50.778;6.142;2022-12-17T12:43:49;13.27;;;10.67;;
12248;SDS011;6187;50.778;6.142;2022-12-17T12:46:39;14.60;;;10.57;;
12248;SDS011;6187;50.778;6.142;2022-12-17T12:49:29;13.33;;;10.30;;
12248;SDS011;6187;50.778;6.142;2022-12-17T12:52:19;13.20;;;9.77;;
12248;SDS011;6187;50.778;6.142;2022-12-17T12:55:06;13.37;;;11.03;;
12248;SDS011;6187;50.778;6.142;2022-12-17T12:57:56;12.77;;;9.83;;
12248;SDS011;6187;50.778;6.142;2022-12-17T13:00:52;12.37;;;9.63;;
12248;SDS011;6187;50.778;6.142;2022-12-17T13:03:48;10.13;;;8.83;;
12248;SDS011;6187;50.778;6.142;2022-12-17T13:06:43;10.73;;;8.33;;
12248;SDS011;6187;50.778;6.142;2022-12-17T13:09:18;9.00;;;7.57;;
12248;SDS011;6187;50.778;6.142;2022-12-17T13:11:48;10.13;;;8.60;;
12248;SDS011;6187;50.778;6.142;2022-12-17T13:14:17;8.53;;;7.23;;
12248;SDS011;6187;50.778;6.142;2022-12-17T13:16:51;8.97;;;7.47;;
12248;SDS011;6187;50.778;6.142;2022-12-17T13:19:36;8.17;;;7.37;;
12248;SDS011;6187;50.778;6.142;2022-12-17T13:22:11;8.17;;;7.37;;
12248;SDS011;6187;50.778;6.142;2022-12-17T13:24:50;9.77;;;7.73;;
12248;SDS011;6187;50.778;6.142;2022-12-17T13:27:26;8.67;;;7.80;;
12248;SDS011;6187;50.778;6.142;2022-12-17T13:29:55;8.73;;;7.47;;
12248;SDS011;6187;50.778;6.142;2022-12-17T13:32:25;7.97;;;7.17;;
12248;SDS011;6187;50.778;6.142;2022-12-17T13:35:00;7.80;;;7.00;;
12248;SDS011;6187;50.778;6.142;2022-12-17T13:37:39;8.00;;;7.20;;
12248;SDS011;6187;50.778;6.142;2022-12-17T13:40:14;7.33;;;6.63;;
12248;SDS011;6187;50.778;6.142;2022-12-17T13:42:45;7.90;;;6.97;;
12248;SDS011;6187;50.778;6.142;2022-12-17T13:45:14;7.40;;;6.70;;
12248;SDS011;6187;50.778;6.142;2022-12-17T13:47:50;7.80;;;7.00;;
12248;SDS011;6187;50.778;6.142;2022-12-17T13:50:20;8.00;;;6.67;;
12248;SDS011;6187;50.778;6.142;2022-12-17T13:53:09;7.00;;;6.30;;
12248;SDS011;6187;50.778;6.142;2022-12-17T13:55:38;7.63;;;6.20;;
12248;SDS011;6187;50.778;6.142;2022-12-17T13:58:17;7.27;;;6.17;;
12248;SDS011;6187;50.778;6.142;2022-12-17T14:00:47;6.77;;;5.90;;
12248;SDS011;6187;50.778;6.142;2022-12-17T14:03:19;6.60;;;5.47;;
12248;SDS011;6187;50.778;6.142;2022-12-17T14:06:09;6.07;;;5.47;;
12248;SDS011;6187;50.778;6.142;2022-12-17T14:08:39;7.73;;;6.23;;
12248;SDS011;6187;50.778;6.142;2022-12-17T14:11:09;6.03;;;5.40;;
12248;SDS011;6187;50.778;6.142;2022-12-17T14:13:56;6.23;;;5.50;;
12248;SDS011;6187;50.778;6.142;2022-12-17T14:16:25;7.40;;;5.90;;
12248;SDS011;6187;50.778;6.142;2022-12-17T14:18:54;6.63;;;5.67;;
12248;SDS011;6187;50.778;6.142;2022-12-17T14:21:23;6.53;;;5.57;;
12248;SDS011;6187;50.778;6.142;2022-12-17T14:23:53;7.00;;;5.50;;
12248;SDS011;6187;50.778;6.142;2022-12-17T14:26:23;8.10;;;5.87;;
12248;SDS011;6187;50.778;6.142;2022-12-17T14:28:52;8.00;;;6.40;;
12248;SDS011;6187;50.778;6.142;2022-12-17T14:31:22;7.40;;;6.17;;
12248;SDS011;6187;50.778;6.142;2022-12-17T14:34:00;7.90;;;6.13;;
12248;SDS011;6187;50.778;6.142;2022-12-17T14:36:32;9.43;;;6.93;;
12248;SDS011;6187;50.778;6.142;2022-12-17T14:39:04;11.23;;;8.27;;
12248;SDS011;6187;50.778;6.142;2022-12-17T14:41:37;9.80;;;7.90;;
12248;SDS011;6187;50.778;6.142;2022-12-17T14:44:24;10.60;;;8.17;;
12248;SDS011;6187;50.778;6.142;2022-12-17T14:47:07;12.03;;;8.63;;
12248;SDS011;6187;50.778;6.142;2022-12-17T14:49:36;9.87;;;8.13;;
12248;SDS011;6187;50.778;6.142;2022-12-17T14:52:10;13.20;;;9.40;;
12248;SDS011;6187;50.778;6.142;2022-12-17T14:54:44;10.37;;;9.10;;
12248;SDS011;6187;50.778;6.142;2022-12-17T14:57:18;11.00;;;8.87;;
12248;SDS011;6187;50.778;6.142;2022-12-17T14:59:47;12.13;;;10.07;;
12248;SDS011;6187;50.778;6.142;2022-12-17T15:02:21;12.13;;;9.53;;
12248;SDS011;6187;50.778;6.142;2022-12-17T15:04:52;11.77;;;9.50;;
12248;SDS011;6187;50.778;6.142;2022-12-17T15:07:24;11.60;;;9.10;;
12248;SDS011;6187;50.778;6.142;2022-12-17T15:09:54;10.20;;;8.93;;
12248;SDS011;6187;50.778;6.142;2022-12-17T15:12:23;12.40;;;9.50;;
12248;SDS011;6187;50.778;6.142;2022-12-17T15:14:52;11.07;;;8.97;;
12248;SDS011;6187;50.778;6.142;2022-12-17T15:17:20;9.80;;;8.47;;
12248;SDS011;6187;50.778;6.142;2022-12-17T15:19:49;11.50;;;9.33;;
12248;SDS011;6187;50.778;6.142;2022-12-17T15:22:22;11.17;;;8.87;;
12248;SDS011;6187;50.778;6.142;2022-12-17T15:24:50;10.93;;;9.23;;
12248;SDS011;6187;50.778;6.142;2022-12-17T15:27:20;12.63;;;9.57;;
12248;SDS011;6187;50.778;6.142;2022-12-17T15:29:49;12.80;;;9.03;;
12248;SDS011;6187;50.778;6.142;2022-12-17T15:32:18;12.77;;;9.67;;
12248;SDS011;6187;50.778;6.142;2022-12-17T15:34:47;11.77;;;8.60;;
12248;SDS011;6187;50.778;6.142;2022-12-17T15:37:16;10.73;;;8.27;;
12248;SDS011;6187;50.778;6.142;2022-12-17T15:39:50;11.57;;;8.57;;
12248;SDS011;6187;50.778;6.142;2022-12-17T15:42:20;11.33;;;9.63;;
12248;SDS011;6187;50.778;6.142;2022-12-17T15:45:07;12.97;;;10.47;;
12248;SDS011;6187;50.778;6.142;2022-12-17T15:47:36;12.27;;;9.43;;
12248;SDS011;6187;50.778;6.142;2022-12-17T15:50:05;11.13;;;8.80;;
12248;SDS011;6187;50.778;6.142;2022-12-17T15:52:34;14.33;;;9.67;;
12248;SDS011;6187;50.778;6.142;2022-12-17T15:55:03;11.93;;;9.27;;
12248;SDS011;6187;50.778;6.142;2022-12-17T15:57:33;13.00;;;9.47;;
12248;SDS011;6187;50.778;6.142;2022-12-17T16:00:01;12.27;;;9.10;;
12248;SDS011;6187;50.778;6.142;2022-12-17T16:02:30;12.33;;;8.77;;
12248;SDS011;6187;50.778;6.142;2022-12-17T16:04:59;11.50;;;8.60;;
12248;SDS011;6187;50.778;6.142;2022-12-17T16:07:28;12.63;;;9.53;;
12248;SDS011;6187;50.778;6.142;2022-12-17T16:09:56;12.73;;;9.43;;
12248;SDS011;6187;50.778;6.142;2022-12-17T16:12:31;13.17;;;9.73;;
12248;SDS011;6187;50.778;6.142;2022-12-17T16:15:00;12.20;;;10.07;;
12248;SDS011;6187;50.778;6.142;2022-12-17T16:17:29;14.10;;;10.70;;
12248;SDS011;6187;50.778;6.142;2022-12-17T16:19:58;12.50;;;9.23;;
12248;SDS011;6187;50.778;6.142;2022-12-17T16:22:27;12.27;;;9.30;;
12248;SDS011;6187;50.778;6.142;2022-12-17T16:24:55;14.07;;;10.10;;
12248;SDS011;6187;50.778;6.142;2022-12-17T16:27:24;12.73;;;9.80;;